»·PEaware :: USC243 KVIS-KSBA

USC243 :: KVIS-KSBA

FLIGHT INFORMATION

Flight Status: Arrived
Operator: Unknown
More flights by this operator :: More flights under this callsign
Pilot: Andy P. (22680)
Aircraft: GATES LEARJET LEARJET 35/36
(LJ35)
More flights by this aircraft type
Origin: KVIS Visalia Mun
United States
Destination: KSBA Santa Barbara Mun
United States
More flights between these airports :: More routes between these airports
Route: +PONDD RZS
File this flight plan on PilotEdge
Remarks:
Altitude:
(Current/Filed)
20,000ft
Speed:
(Current/Filed)
465kts
Departed: 28-Feb-19 02:23 PM
Arrived: 28-Feb-19 02:56 PM
Distance/Time
Traveled:
115nm/0:33
Distance/Time
To Go:
Arrived

Flight Plot

Page will automatically refresh every two minutes.

Flight plan parsing failed; only flown route is shown


Map Options




Map Legend


Flown Route
Filed Route
Departure Airport
Arrival Airport
Navaid (VOR, NDB)
Fix

Horizontal Profiles

Position Reports

Time Latitude Longitude Heading Altitude Ground
Speed
28-Feb-19 14:06 36.323436 -119.395974 225 297ft 0kts
28-Feb-19 14:07 36.323436 -119.395974 225 298ft 0kts
28-Feb-19 14:08 36.323436 -119.395974 225 298ft 0kts
28-Feb-19 14:09 36.323436 -119.395974 225 298ft 0kts
28-Feb-19 14:10 36.323436 -119.395974 225 298ft 0kts
28-Feb-19 14:11 36.323436 -119.395974 225 298ft 0kts
28-Feb-19 14:12 36.323436 -119.395974 225 298ft 0kts
28-Feb-19 14:13 36.323436 -119.395974 225 298ft 0kts
28-Feb-19 14:14 36.323436 -119.395974 225 298ft 0kts
28-Feb-19 14:15 36.323436 -119.395974 225 298ft 0kts
28-Feb-19 14:16 36.323435 -119.395974 225 298ft 0kts
28-Feb-19 14:17 36.321792 -119.395126 143 298ft 16kts
28-Feb-19 14:18 36.318046 -119.390465 136 298ft 15kts
28-Feb-19 14:19 36.313352 -119.384679 134 298ft 23kts
28-Feb-19 14:20 36.313020 -119.384399 183 298ft 0kts
28-Feb-19 14:21 36.313019 -119.384399 183 298ft 0kts
28-Feb-19 14:22 36.315712 -119.389358 315 298ft 126kts
28-Feb-19 14:23 36.320468 -119.435177 242 2971ft 166kts
28-Feb-19 14:24 36.289354 -119.487180 189 6317ft 215kts
28-Feb-19 14:25 36.229870 -119.459241 170 10380ft 258kts
28-Feb-19 14:26 36.150857 -119.431755 160 14798ft 340kts
28-Feb-19 14:27 36.061093 -119.379765 169 19235ft 361kts
28-Feb-19 14:28 35.967524 -119.339521 168 20193ft 394kts
28-Feb-19 14:29 35.855990 -119.285937 172 20188ft 443kts
28-Feb-19 14:30 35.743455 -119.301694 206 20187ft 397kts
28-Feb-19 14:31 35.643982 -119.339134 204 20183ft 385kts
28-Feb-19 14:32 35.539556 -119.378915 204 20180ft 401kts
28-Feb-19 14:33 35.431641 -119.420383 204 20176ft 408kts
28-Feb-19 14:34 35.336263 -119.457167 205 20172ft 398kts
28-Feb-19 14:35 35.228076 -119.498715 204 20174ft 406kts
28-Feb-19 14:36 35.129317 -119.536190 205 20162ft 370kts
28-Feb-19 14:37 35.030567 -119.573918 204 20162ft 372kts
28-Feb-19 14:38 34.932227 -119.611294 204 19440ft 355kts
28-Feb-19 14:39 34.844461 -119.644516 204 16701ft 317kts
28-Feb-19 14:40 34.760099 -119.676508 203 14431ft 315kts
28-Feb-19 14:41 34.680480 -119.706590 203 13946ft 289kts
28-Feb-19 14:42 34.606362 -119.734502 204 13989ft 258kts
28-Feb-19 14:43 34.536147 -119.761037 202 11558ft 267kts
28-Feb-19 14:44 34.462839 -119.743696 159 8308ft 277kts
28-Feb-19 14:45 34.393932 -119.714713 154 6183ft 250kts
28-Feb-19 14:46 34.360390 -119.652295 144 5975ft 211kts
28-Feb-19 14:47 34.309076 -119.629750 155 4888ft 205kts
28-Feb-19 14:48 34.308076 -119.576293 18 3696ft 191kts
28-Feb-19 14:49 34.346202 -119.611172 297 2446ft 183kts
28-Feb-19 14:50 34.365993 -119.661074 295 2099ft 134kts
28-Feb-19 14:51 34.381163 -119.700133 295 2049ft 114kts
28-Feb-19 14:52 34.395237 -119.737282 294 2010ft 131kts
28-Feb-19 14:53 34.409565 -119.775527 293 1079ft 131kts
28-Feb-19 14:54 34.428069 -119.812191 276 438ft 127kts
28-Feb-19 14:55 34.427674 -119.845363 266 13ft 25kts
28-Feb-19 14:56 34.428556 -119.846021 59 13ft 0kts
28-Feb-19 14:57 34.429569 -119.842728 63 13ft 20kts
28-Feb-19 14:58 34.432203 -119.834802 66 13ft 16kts
28-Feb-19 14:59 34.432111 -119.833496 173 13ft 0kts
28-Feb-19 15:00 34.432111 -119.833496 173 13ft 0kts
28-Feb-19 15:01 34.432111 -119.833496 173 13ft 0kts
28-Feb-19 15:02 34.432111 -119.833496 173 13ft 0kts
28-Feb-19 15:03 34.432111 -119.833496 173 13ft 0kts
28-Feb-19 15:04 34.432111 -119.833496 173 13ft 0kts
28-Feb-19 15:05 34.432111 -119.833496 173 13ft 0kts
28-Feb-19 15:06 34.432111 -119.833496 173 13ft 0kts
28-Feb-19 15:07 34.432111 -119.833496 173 13ft 0kts
28-Feb-19 15:08 34.432111 -119.833496 173 13ft 0kts
28-Feb-19 15:09 34.432111 -119.833496 173 13ft 0kts

Navigation Log

Ident Type
Flight plan parsing failed, navigation log unavailable